Preview of NWS' New Version of Forecast
This preview is not operational and should not be used for support decisions.

Terminal Aerodrome Forecast (TAF)

Issued by National Weather Service (NWS)

                            
969 
FTUS42 KMFL 241732
TAFMIA
TAF
KMIA 241732Z 2418/2524 11015G20KT P6SM SCT025 BKN050
     FM242000 11010KT P6SM SCT025 BKN050
     FM250600 11006KT P6SM SCT025 SCT040
     FM251500 12012KT P6SM SCT030 SCT040
     FM252200 14008KT P6SM BKN250=